createdAt,value
2023-01-28T00:01:44.634Z,101098.59
2023-01-28T00:04:12.777Z,101096.69
2023-01-28T00:06:40.615Z,101094.38
2023-01-28T00:09:08.800Z,101095.75
2023-01-28T00:11:37.055Z,101103.81
2023-01-28T00:14:05.065Z,101098.75
2023-01-28T00:16:33.116Z,101097.72
2023-01-28T00:19:00.681Z,101097.19
2023-01-28T00:21:28.412Z,101099.84
2023-01-28T00:23:57.030Z,101090.56
2023-01-28T00:26:25.436Z,101098.84
2023-01-28T00:28:53.177Z,101101.66
2023-01-28T00:31:23.909Z,101102.34
2023-01-28T00:33:52.801Z,101109.09
2023-01-28T00:36:23.048Z,101108.06
2023-01-28T00:38:52.589Z,101106.06
2023-01-28T00:41:23.776Z,101115.56
2023-01-28T00:43:53.505Z,101114.81
2023-01-28T00:46:22.986Z,101117.69
2023-01-28T00:48:50.728Z,101120.56
2023-01-28T00:51:20.716Z,101115.56
2023-01-28T00:53:50.426Z,101115.50
2023-01-28T00:56:19.613Z,101113.84
2023-01-28T00:58:48.386Z,101112.53
2023-01-28T01:01:21.718Z,101106.47
2023-01-28T01:03:57.600Z,101110.06
2023-01-28T01:06:25.904Z,101115.94
2023-01-28T01:08:53.383Z,101115.06
2023-01-28T01:11:21.245Z,101115.13
2023-01-28T01:13:54.956Z,101124.63
2023-01-28T01:16:24.931Z,101122.72
2023-01-28T01:18:54.297Z,101121.81
2023-01-28T01:21:25.127Z,101123.84
2023-01-28T01:23:53.925Z,101130.69
2023-01-28T01:26:23.589Z,101130.75
2023-01-28T01:28:52.460Z,101123.28
2023-01-28T01:31:21.982Z,101124.47
2023-01-28T01:33:52.181Z,101124.69
2023-01-28T01:36:22.252Z,101127.75
2023-01-28T01:38:55.395Z,101127.78
2023-01-28T01:41:29.536Z,101124.81
2023-01-28T01:44:02.979Z,101127.00
2023-01-28T01:46:31.285Z,101128.78
2023-01-28T01:49:06.551Z,101127.88
2023-01-28T01:51:36.557Z,101131.81
2023-01-28T01:54:05.651Z,101134.75
2023-01-28T01:56:38.665Z,101133.66
2023-01-28T01:59:12.014Z,101131.88
2023-01-28T02:01:41.540Z,101136.31
2023-01-28T02:04:17.453Z,101130.47
2023-01-28T02:06:48.529Z,101129.91
2023-01-28T02:09:32.504Z,101129.03
2023-01-28T02:12:11.310Z,101124.94
2023-01-28T02:14:44.247Z,101123.84
2023-01-28T02:17:12.531Z,101135.59
2023-01-28T02:20:07.991Z,101132.94
2023-01-28T02:22:39.086Z,101137.06
2023-01-28T02:25:34.140Z,101129.66
2023-01-28T02:28:27.354Z,101136.56
2023-01-28T02:31:04.743Z,101127.91
2023-01-28T02:33:50.369Z,101129.19
2023-01-28T02:36:41.912Z,101128.72
2023-01-28T02:39:19.007Z,101128.66
2023-01-28T02:41:52.164Z,101132.84
2023-01-28T02:44:20.421Z,101126.28
2023-01-28T02:47:06.593Z,101128.19
2023-01-28T02:49:41.314Z,101120.97
2023-01-28T02:53:20.987Z,101134.44
2023-01-28T02:56:29.546Z,101135.31
2023-01-28T02:59:32.359Z,101122.63
2023-01-28T03:02:20.534Z,101127.72
2023-01-28T03:04:57.121Z,101133.31
2023-01-28T03:07:30.301Z,101122.91
2023-01-28T03:10:04.368Z,101118.97
2023-01-28T03:12:54.194Z,101116.69
2023-01-28T03:16:01.936Z,101113.78
2023-01-28T03:19:00.124Z,101109.47
2023-01-28T03:21:53.438Z,101107.53
2023-01-28T03:24:44.834Z,101107.72
2023-01-28T03:27:37.152Z,101105.63
2023-01-28T03:30:33.442Z,101098.28
2023-01-28T03:33:25.209Z,101099.94
2023-01-28T03:36:12.263Z,101089.56
2023-01-28T03:38:42.323Z,101092.34
2023-01-28T03:41:12.919Z,101083.97
2023-01-28T03:43:41.872Z,101078.44
2023-01-28T03:46:10.117Z,101077.53
2023-01-28T03:48:37.750Z,101077.22
2023-01-28T03:51:08.109Z,101094.84
2023-01-28T03:53:36.465Z,101096.91
2023-01-28T03:56:04.694Z,101103.91
2023-01-28T03:58:51.921Z,101112.69
2023-01-28T04:01:20.846Z,101111.94
2023-01-28T04:03:49.171Z,101111.69
2023-01-28T04:06:24.321Z,101122.41
2023-01-28T04:09:07.635Z,101116.03
2023-01-28T04:11:54.484Z,101120.16
2023-01-28T04:14:27.615Z,101122.78
2023-01-28T04:17:03.988Z,101126.63
2023-01-28T04:19:37.368Z,101134.97
2023-01-28T04:22:10.666Z,101135.31
2023-01-28T04:24:39.772Z,101127.31
2023-01-28T04:27:08.351Z,101128.47
2023-01-28T04:29:36.124Z,101133.19
2023-01-28T04:32:22.669Z,101143.56
2023-01-28T04:35:04.249Z,101147.09
2023-01-28T04:37:58.998Z,101144.50
2023-01-28T04:40:41.119Z,101136.94
2023-01-28T04:43:20.816Z,101144.59
2023-01-28T04:45:51.599Z,101138.84
2023-01-28T04:48:42.911Z,101139.06
2023-01-28T04:51:42.991Z,101144.72
2023-01-28T04:54:33.213Z,101152.56
2023-01-28T04:57:03.619Z,101156.34
2023-01-28T04:59:32.597Z,101162.22
2023-01-28T05:02:00.739Z,101164.00
2023-01-28T05:04:28.841Z,101159.06
2023-01-28T05:06:58.541Z,101172.31
2023-01-28T05:09:31.512Z,101179.63
2023-01-28T05:11:59.104Z,101173.97
2023-01-28T05:14:26.703Z,101172.69
2023-01-28T05:17:10.027Z,101179.59
2023-01-28T05:19:37.643Z,101185.03
2023-01-28T05:22:09.688Z,101189.75
2023-01-28T05:24:42.477Z,101186.03
2023-01-28T05:27:10.255Z,101192.94
2023-01-28T05:29:37.823Z,101189.91
2023-01-28T05:32:05.754Z,101188.25
2023-01-28T05:34:33.995Z,101191.50
2023-01-28T05:37:08.176Z,101190.13
2023-01-28T05:39:38.007Z,101196.25
2023-01-28T05:42:06.231Z,101195.78
2023-01-28T05:44:37.975Z,101202.78
2023-01-28T05:47:24.405Z,101206.63
2023-01-28T05:49:57.540Z,101210.28
2023-01-28T05:52:43.845Z,101213.31
2023-01-28T05:55:21.009Z,101217.88
2023-01-28T05:57:49.812Z,101221.03
2023-01-28T06:00:20.000Z,101225.03
2023-01-28T06:02:47.491Z,101227.66
2023-01-28T06:05:17.002Z,101233.97
2023-01-28T06:07:45.801Z,101239.97
2023-01-28T06:10:18.124Z,101244.31
2023-01-28T06:12:46.387Z,101246.00
2023-01-28T06:15:33.474Z,101246.06
2023-01-28T06:18:03.743Z,101250.28
2023-01-28T06:20:34.720Z,101255.22
2023-01-28T06:23:02.519Z,101262.09
2023-01-28T06:25:30.114Z,101259.38
2023-01-28T06:28:01.689Z,101256.09
2023-01-28T06:30:29.234Z,101253.81
2023-01-28T06:32:57.472Z,101263.53
2023-01-28T06:35:25.115Z,101260.28
2023-01-28T06:37:53.779Z,101273.28
2023-01-28T06:40:23.085Z,101278.59
2023-01-28T06:42:50.709Z,101271.81
2023-01-28T06:45:19.216Z,101271.03
2023-01-28T06:47:46.771Z,101283.78
2023-01-28T06:50:15.051Z,101277.63
2023-01-28T06:52:42.964Z,101280.72
2023-01-28T06:55:10.730Z,101284.44
2023-01-28T06:57:42.629Z,101281.03
2023-01-28T07:00:13.532Z,101276.72
2023-01-28T07:02:42.233Z,101284.72
2023-01-28T07:05:10.346Z,101287.84
2023-01-28T07:07:41.426Z,101287.09
2023-01-28T07:10:11.555Z,101288.31
2023-01-28T07:12:39.851Z,101296.44
2023-01-28T07:15:08.654Z,101290.44
2023-01-28T07:17:36.333Z,101298.91
2023-01-28T07:20:05.395Z,101295.34
2023-01-28T07:22:33.296Z,101291.94
2023-01-28T07:25:01.437Z,101296.13
2023-01-28T07:27:29.435Z,101297.25
2023-01-28T07:29:57.415Z,101294.94
2023-01-28T07:32:27.487Z,101294.63
2023-01-28T07:34:55.124Z,101302.16
2023-01-28T07:37:22.966Z,101303.69
2023-01-28T07:39:51.086Z,101303.38
2023-01-28T07:42:18.639Z,101311.59
2023-01-28T07:44:47.964Z,101312.84
2023-01-28T07:47:15.969Z,101305.81
2023-01-28T07:49:44.160Z,101311.47
2023-01-28T07:52:11.837Z,101313.47
2023-01-28T07:54:39.429Z,101309.50
2023-01-28T07:57:09.977Z,101318.06
2023-01-28T07:59:38.352Z,101320.72
2023-01-28T08:02:06.188Z,101318.28
2023-01-28T08:04:33.868Z,101322.81
2023-01-28T08:07:01.419Z,101327.97
2023-01-28T08:09:29.476Z,101334.94
2023-01-28T08:11:57.476Z,101338.97
2023-01-28T08:14:25.311Z,101343.16
2023-01-28T08:16:52.882Z,101338.69
2023-01-28T08:19:21.944Z,101350.00
2023-01-28T08:21:49.554Z,101352.50
2023-01-28T08:24:17.930Z,101349.28
2023-01-28T08:26:48.913Z,101351.16
2023-01-28T08:29:16.774Z,101349.94
2023-01-28T08:31:44.352Z,101354.09
2023-01-28T08:34:12.264Z,101366.81
2023-01-28T08:36:40.325Z,101368.47
2023-01-28T08:39:07.903Z,101369.78
2023-01-28T08:41:35.871Z,101373.75
2023-01-28T08:44:03.636Z,101375.28
2023-01-28T08:46:31.761Z,101381.63
2023-01-28T08:48:59.764Z,101382.78
2023-01-28T08:51:27.720Z,101380.13
2023-01-28T08:53:55.258Z,101388.13
2023-01-28T08:56:23.770Z,101387.78
2023-01-28T08:58:51.795Z,101395.25
2023-01-28T09:01:19.481Z,101386.28
2023-01-28T09:03:47.069Z,101401.41
2023-01-28T09:06:14.791Z,101401.25
2023-01-28T09:08:42.383Z,101402.34
2023-01-28T09:11:09.920Z,101401.88
2023-01-28T09:13:37.779Z,101401.31
2023-01-28T09:16:06.492Z,101410.94
2023-01-28T09:18:34.132Z,101409.44
2023-01-28T09:21:05.667Z,101413.53
2023-01-28T09:23:37.451Z,101417.97
2023-01-28T09:26:06.478Z,101414.06
2023-01-28T09:28:34.081Z,101412.09
2023-01-28T09:31:12.870Z,101418.19
2023-01-28T09:33:41.154Z,101410.00
2023-01-28T09:36:11.851Z,101411.41
2023-01-28T09:38:39.582Z,101411.06
2023-01-28T09:41:28.598Z,101413.16
2023-01-28T09:44:17.801Z,101418.50
2023-01-28T09:46:45.878Z,101419.56
2023-01-28T09:49:49.375Z,101426.66
2023-01-28T09:52:21.016Z,101423.19
2023-01-28T09:54:56.359Z,101421.53
2023-01-28T09:57:26.182Z,101418.06
2023-01-28T09:59:54.142Z,101426.44
2023-01-28T10:02:49.771Z,101427.16
2023-01-28T10:05:20.201Z,101431.00
2023-01-28T10:08:07.350Z,101423.66
2023-01-28T10:10:42.174Z,101430.00
2023-01-28T10:13:24.220Z,101428.00
2023-01-28T10:15:58.943Z,101423.47
2023-01-28T10:18:50.889Z,101421.44
2023-01-28T10:21:25.753Z,101420.56
2023-01-28T10:24:01.635Z,101416.94
2023-01-28T10:26:49.442Z,101415.66
2023-01-28T10:29:24.302Z,101411.94
2023-01-28T10:32:00.288Z,101411.66
2023-01-28T10:34:28.528Z,101415.19
2023-01-28T10:36:57.766Z,101414.91
2023-01-28T10:39:26.675Z,101416.00
2023-01-28T10:41:58.676Z,101403.22
2023-01-28T10:44:42.071Z,101397.31
2023-01-28T10:47:20.485Z,101393.94
2023-01-28T10:49:53.366Z,101391.38
2023-01-28T10:52:21.429Z,101389.50
2023-01-28T10:54:59.900Z,101382.75
2023-01-28T10:57:28.276Z,101381.03
2023-01-28T10:59:56.528Z,101377.59
2023-01-28T11:02:35.965Z,101374.94
2023-01-28T11:05:21.836Z,101369.38
2023-01-28T11:07:50.203Z,101371.38
2023-01-28T11:10:37.893Z,101368.19
2023-01-28T11:13:14.874Z,101370.81
2023-01-28T11:15:50.177Z,101370.59
2023-01-28T11:18:30.361Z,101365.16
2023-01-28T11:21:16.832Z,101367.56
2023-01-28T11:24:02.598Z,101364.88
2023-01-28T11:26:37.037Z,101353.88
2023-01-28T11:29:05.411Z,101352.28
2023-01-28T11:31:42.704Z,101348.94
2023-01-28T11:34:17.715Z,101353.53
2023-01-28T11:36:54.416Z,101347.66
2023-01-28T11:39:28.662Z,101344.13
2023-01-28T11:42:11.764Z,101341.50
2023-01-28T11:44:40.665Z,101337.38
2023-01-28T11:47:25.204Z,101333.31
2023-01-28T11:50:11.455Z,101332.41
2023-01-28T11:53:06.038Z,101325.63
2023-01-28T11:55:46.217Z,101312.88
2023-01-28T11:58:29.624Z,101314.28
2023-01-28T12:01:13.213Z,101311.22
2023-01-28T12:04:03.969Z,101305.66
2023-01-28T12:06:41.002Z,101315.75
2023-01-28T12:09:35.308Z,101301.59
2023-01-28T12:12:12.068Z,101289.94
2023-01-28T12:15:01.066Z,101299.09
2023-01-28T12:17:53.580Z,101288.84
2023-01-28T12:20:52.073Z,101287.66
2023-01-28T12:23:41.794Z,101295.25
2023-01-28T12:26:37.135Z,101285.97
2023-01-28T12:29:35.861Z,101286.94
2023-01-28T12:32:30.872Z,101284.72
2023-01-28T12:35:07.994Z,101282.81
2023-01-28T12:38:00.157Z,101290.59
2023-01-28T12:40:46.821Z,101284.47
2023-01-28T12:43:27.490Z,101285.56
2023-01-28T12:46:03.600Z,101285.88
2023-01-28T12:48:41.239Z,101278.84
2023-01-28T12:51:18.854Z,101280.22
2023-01-28T12:54:02.592Z,101288.81
2023-01-28T12:56:35.648Z,101272.63
2023-01-28T12:59:15.524Z,101287.50
2023-01-28T13:02:01.597Z,101282.56
2023-01-28T13:04:40.174Z,101274.88
2023-01-28T13:07:19.380Z,101268.72
2023-01-28T13:09:55.374Z,101272.91
2023-01-28T13:12:23.868Z,101261.41
2023-01-28T13:14:54.262Z,101265.03
2023-01-28T13:17:29.052Z,101268.47
2023-01-28T13:19:58.044Z,101275.38
2023-01-28T13:22:36.016Z,101279.16
2023-01-28T13:25:27.179Z,101285.03
2023-01-28T13:28:04.388Z,101278.91
2023-01-28T13:30:49.362Z,101288.53
2023-01-28T13:33:30.522Z,101290.44
2023-01-28T13:36:07.681Z,101284.72
2023-01-28T13:38:36.436Z,101295.25
2023-01-28T13:41:07.695Z,101303.00
2023-01-28T13:43:38.704Z,101301.06
2023-01-28T13:46:10.490Z,101305.47
2023-01-28T13:48:52.119Z,101296.41
2023-01-28T13:51:35.624Z,101289.94
2023-01-28T13:54:12.693Z,101301.50
2023-01-28T13:57:03.476Z,101304.31
2023-01-28T13:59:44.407Z,101306.91
2023-01-28T14:02:30.671Z,101303.53
2023-01-28T14:05:22.440Z,101301.25
2023-01-28T14:08:08.525Z,101311.34
2023-01-28T14:10:39.079Z,101308.88
2023-01-28T14:13:28.203Z,101305.16
2023-01-28T14:16:12.952Z,101306.22
2023-01-28T14:18:45.756Z,101300.66
2023-01-28T14:21:17.387Z,101302.03
2023-01-28T14:23:48.763Z,101306.16
2023-01-28T14:26:43.222Z,101315.44
2023-01-28T14:29:10.893Z,101311.63
2023-01-28T14:31:39.830Z,101316.94
2023-01-28T14:34:28.963Z,101309.91
2023-01-28T14:37:08.314Z,101308.84
2023-01-28T14:39:44.864Z,101314.09
2023-01-28T14:42:49.593Z,101313.59
2023-01-28T14:45:17.867Z,101320.69
2023-01-28T14:47:51.091Z,101325.41
2023-01-28T14:50:39.810Z,101327.63
2023-01-28T14:53:43.974Z,101338.38
2023-01-28T14:56:36.494Z,101339.31
2023-01-28T14:59:38.086Z,101336.69
2023-01-28T15:02:42.958Z,101345.84
2023-01-28T15:05:20.116Z,101340.59
2023-01-28T15:07:49.206Z,101342.97
2023-01-28T15:10:18.891Z,101338.22
2023-01-28T15:12:54.556Z,101347.66
2023-01-28T15:15:34.905Z,101358.00
2023-01-28T15:18:08.467Z,101363.13
2023-01-28T15:20:36.261Z,101355.84
2023-01-28T15:23:07.594Z,101370.25
2023-01-28T15:25:35.712Z,101368.78
2023-01-28T15:28:03.686Z,101363.22
2023-01-28T15:30:32.680Z,101367.72
2023-01-28T15:33:15.183Z,101370.91
2023-01-28T15:35:54.503Z,101371.81
2023-01-28T15:38:23.343Z,101375.22
2023-01-28T15:41:02.396Z,101369.47
2023-01-28T15:43:36.630Z,101380.16
2023-01-28T15:46:11.614Z,101384.97
2023-01-28T15:48:44.258Z,101380.81
2023-01-28T15:51:25.745Z,101385.28
2023-01-28T15:53:58.297Z,101391.03
2023-01-28T15:56:29.276Z,101396.06
2023-01-28T15:59:08.649Z,101397.53
2023-01-28T16:01:36.821Z,101411.78
2023-01-28T16:04:09.639Z,101405.13
2023-01-28T16:06:39.758Z,101407.91
2023-01-28T16:09:28.195Z,101411.53
2023-01-28T16:12:04.210Z,101412.41
2023-01-28T16:14:40.676Z,101416.38
2023-01-28T16:17:09.655Z,101415.78
2023-01-28T16:19:41.735Z,101420.00
2023-01-28T16:22:23.309Z,101424.88
2023-01-28T16:24:53.272Z,101422.34
2023-01-28T16:27:33.472Z,101423.63
2023-01-28T16:30:01.658Z,101425.31
2023-01-28T16:32:37.830Z,101429.19
2023-01-28T16:35:18.215Z,101439.38
2023-01-28T16:37:47.699Z,101437.19
2023-01-28T16:40:20.857Z,101431.94
2023-01-28T16:42:49.080Z,101441.09
2023-01-28T16:45:23.291Z,101444.75
2023-01-28T16:47:52.145Z,101455.31
2023-01-28T16:50:22.034Z,101451.53
2023-01-28T16:52:51.652Z,101455.88
2023-01-28T16:55:21.379Z,101463.09
2023-01-28T16:57:53.130Z,101470.16
2023-01-28T17:00:26.044Z,101472.44
2023-01-28T17:02:54.604Z,101472.00
2023-01-28T17:05:23.293Z,101474.50
2023-01-28T17:07:51.131Z,101482.69
2023-01-28T17:10:20.581Z,101476.75
2023-01-28T17:12:48.960Z,101481.25
2023-01-28T17:15:17.151Z,101491.25
2023-01-28T17:17:49.409Z,101499.78
2023-01-28T17:20:17.443Z,101498.13
2023-01-28T17:22:45.663Z,101507.16
2023-01-28T17:25:14.866Z,101515.47
2023-01-28T17:27:43.027Z,101514.78
2023-01-28T17:30:11.291Z,101514.13
2023-01-28T17:32:39.305Z,101512.81
2023-01-28T17:35:07.518Z,101522.44
2023-01-28T17:37:38.374Z,101530.28
2023-01-28T17:40:06.602Z,101530.91
2023-01-28T17:42:34.154Z,101538.63
2023-01-28T17:45:03.291Z,101540.50
2023-01-28T17:47:31.907Z,101545.88
2023-01-28T17:50:00.536Z,101543.66
2023-01-28T17:52:28.241Z,101544.97
2023-01-28T17:54:55.872Z,101546.72
2023-01-28T17:57:23.495Z,101551.31
2023-01-28T17:59:51.076Z,101554.91
2023-01-28T18:02:19.052Z,101554.78
2023-01-28T18:04:46.725Z,101562.13
2023-01-28T18:07:14.726Z,101567.41
2023-01-28T18:09:47.518Z,101571.25
2023-01-28T18:12:16.613Z,101579.22
2023-01-28T18:14:44.230Z,101578.69
2023-01-28T18:17:11.941Z,101584.28
2023-01-28T18:19:39.855Z,101585.31
2023-01-28T18:22:08.670Z,101589.00
2023-01-28T18:24:36.465Z,101589.19
2023-01-28T18:27:04.277Z,101589.31
2023-01-28T18:29:32.065Z,101589.03
2023-01-28T18:31:59.796Z,101596.84
2023-01-28T18:34:31.570Z,101599.44
2023-01-28T18:36:59.364Z,101594.88
2023-01-28T18:39:30.358Z,101598.97
2023-01-28T18:41:59.121Z,101604.81
2023-01-28T18:44:30.194Z,101606.94
2023-01-28T18:46:57.953Z,101611.66
2023-01-28T18:49:26.009Z,101605.69
2023-01-28T18:51:54.175Z,101620.31
2023-01-28T18:54:23.211Z,101617.00
2023-01-28T18:56:51.315Z,101618.47
2023-01-28T18:59:19.100Z,101623.13
2023-01-28T19:01:48.020Z,101618.09
2023-01-28T19:04:16.681Z,101620.13
2023-01-28T19:06:45.291Z,101625.44
2023-01-28T19:09:14.756Z,101628.81
2023-01-28T19:11:43.114Z,101635.38
2023-01-28T19:14:14.394Z,101634.47
2023-01-28T19:16:42.813Z,101643.88
2023-01-28T19:19:11.100Z,101639.69
2023-01-28T19:21:38.728Z,101645.63
2023-01-28T19:24:09.799Z,101639.81
2023-01-28T19:26:38.159Z,101654.38
2023-01-28T19:29:11.023Z,101650.72
2023-01-28T19:31:39.987Z,101656.31
2023-01-28T19:34:13.082Z,101659.78
2023-01-28T19:36:42.323Z,101663.34
2023-01-28T19:39:12.144Z,101666.72
2023-01-28T19:41:40.271Z,101667.63
2023-01-28T19:44:08.679Z,101661.63
2023-01-28T19:46:36.580Z,101675.47
2023-01-28T19:49:06.536Z,101677.31
2023-01-28T19:51:34.853Z,101675.38
2023-01-28T19:54:02.808Z,101673.03
2023-01-28T19:56:30.668Z,101683.47
2023-01-28T19:58:58.238Z,101682.72
2023-01-28T20:01:30.136Z,101685.97
2023-01-28T20:04:00.177Z,101683.25
2023-01-28T20:06:30.450Z,101685.16
2023-01-28T20:09:07.820Z,101684.97
2023-01-28T20:11:36.033Z,101692.34
2023-01-28T20:14:04.064Z,101694.47
2023-01-28T20:16:33.970Z,101695.94
2023-01-28T20:19:08.337Z,101685.84
2023-01-28T20:21:37.179Z,101690.03
2023-01-28T20:24:06.648Z,101701.97
2023-01-28T20:26:37.480Z,101695.56
2023-01-28T20:29:11.395Z,101704.06
2023-01-28T20:31:40.853Z,101708.91
2023-01-28T20:34:16.674Z,101713.22
2023-01-28T20:36:44.833Z,101726.19
2023-01-28T20:39:13.666Z,101726.81
2023-01-28T20:41:41.212Z,101734.75
2023-01-28T20:44:09.468Z,101734.09
2023-01-28T20:46:38.877Z,101732.50
2023-01-28T20:49:07.136Z,101743.59
2023-01-28T20:51:35.939Z,101741.00
2023-01-28T20:54:04.397Z,101742.81
2023-01-28T20:56:32.167Z,101747.47
2023-01-28T20:59:04.689Z,101747.47
2023-01-28T21:01:35.310Z,101749.25
2023-01-28T21:04:10.560Z,101753.81
2023-01-28T21:06:40.111Z,101750.00
2023-01-28T21:09:08.256Z,101743.91
2023-01-28T21:11:36.528Z,101747.69
2023-01-28T21:14:04.219Z,101757.94
2023-01-28T21:16:32.295Z,101756.28
2023-01-28T21:19:00.048Z,101759.06
2023-01-28T21:21:29.297Z,101757.41
2023-01-28T21:23:59.988Z,101760.16
2023-01-28T21:26:28.243Z,101765.19
2023-01-28T21:28:56.362Z,101767.84
2023-01-28T21:31:25.779Z,101772.72
2023-01-28T21:33:56.107Z,101774.13
2023-01-28T21:36:25.309Z,101779.50
2023-01-28T21:38:54.966Z,101775.41
2023-01-28T21:41:22.756Z,101776.28
2023-01-28T21:43:54.245Z,101776.44
2023-01-28T21:46:32.938Z,101780.19
2023-01-28T21:49:03.388Z,101773.88
2023-01-28T21:51:46.048Z,101787.75
2023-01-28T21:54:19.273Z,101793.78
2023-01-28T21:56:49.508Z,101798.06
2023-01-28T21:59:30.856Z,101801.09
2023-01-28T22:02:07.457Z,101803.66
2023-01-28T22:04:38.190Z,101802.97
2023-01-28T22:07:09.541Z,101804.88
2023-01-28T22:09:38.074Z,101803.44
2023-01-28T22:12:10.103Z,101803.25
2023-01-28T22:14:39.440Z,101813.88
2023-01-28T22:17:09.192Z,101814.63
2023-01-28T22:19:37.915Z,101811.97
2023-01-28T22:22:05.995Z,101821.88
2023-01-28T22:24:34.022Z,101818.28
2023-01-28T22:27:01.839Z,101816.63
2023-01-28T22:29:29.826Z,101822.75
2023-01-28T22:31:57.391Z,101816.78
2023-01-28T22:34:25.301Z,101819.44
2023-01-28T22:36:53.311Z,101829.81
2023-01-28T22:39:41.654Z,101836.91
2023-01-28T22:42:23.071Z,101832.84
2023-01-28T22:44:50.740Z,101841.44
2023-01-28T22:47:19.270Z,101838.06
2023-01-28T22:49:46.757Z,101843.22
2023-01-28T22:52:14.237Z,101846.53
2023-01-28T22:54:42.715Z,101845.72
2023-01-28T22:57:10.363Z,101844.78
2023-01-28T22:59:41.792Z,101849.91
2023-01-28T23:02:10.069Z,101841.22
2023-01-28T23:04:37.709Z,101841.22
2023-01-28T23:07:05.657Z,101836.91
2023-01-28T23:09:35.520Z,101836.66
2023-01-28T23:12:03.085Z,101838.44
2023-01-28T23:14:49.730Z,101831.56
2023-01-28T23:17:37.055Z,101834.34
2023-01-28T23:20:23.696Z,101831.38
2023-01-28T23:23:10.106Z,101830.03
2023-01-28T23:25:38.168Z,101832.47
2023-01-28T23:28:06.095Z,101834.13
2023-01-28T23:30:34.687Z,101836.81
2023-01-28T23:33:03.400Z,101834.13
2023-01-28T23:35:32.753Z,101835.75
2023-01-28T23:38:00.291Z,101840.72
2023-01-28T23:40:28.409Z,101836.41
2023-01-28T23:42:56.321Z,101838.84
2023-01-28T23:45:24.532Z,101836.56
2023-01-28T23:47:52.548Z,101846.34
2023-01-28T23:50:21.121Z,101844.09
2023-01-28T23:52:49.249Z,101837.47
2023-01-28T23:55:17.074Z,101842.38
2023-01-28T23:57:44.670Z,101847.69
